Hovedside
METAR-TAF:

METAR-TAF

Lufthavner :

Lusaka internasjonale lufthavn

Lusaka, Zambia

breddegrad: 15-19-51S, lengdegrad: 028-27-09E, høyde over havet: 1152 m

Gjeldene værobservasjon

Denne rapporten ble laget for 2 timer og 33 minutter siden, klokken 04:00 UTC
Vind 3 kt fra Sørøst
Temperatur 19°C
Luftfuktighet 94%
Trykk 1020 hPa
Sikt 10 km eller mer
Spredte skyer i en høyde av 700 ft
Brutte skyer i en høyde av 8000 ft

METAR: FLKK 120400Z 13003KT 9999 SCT007 BKN080 19/18 Q1020

Tid: 08:33 (06:33 UTC)


TAF: fraværende

Værobservasjoner og værvarsel for over 4000 flyplasser (METAR- og TAF-rapporter).

Tilgjengelige stasjoner er representert av de røde og gule prikkene på kartet.

Hold musepekeren over prikken for å se navnet på stasjonen.

Klikk så for å se værobservasjoner og -varsler.

For å forandre kartet kan du klikke på den grønne knappen med svart kryss for å zoome inn, på den grønne knappen med strek for å zoome ut, eller på de grønne pilene for å se tilstøtende kart.


METAR-TAF: